Flight Track Log - Related Links

Times and Time Zones

All times are in EDT time to prevent confusion due to time zone crossing. See the N9576M flight status page for this flight to view local times or setup timezone preferences in your user account.

Time Position Orientation Groundspeed Altitude Reporting Facility
EDT Latitude Longitude Course Direction KTS MPH feet Rate Location/Type
Fri 06:36:14 PM 40.5081 -88.8931 349° North 96 110 2,500  Level Chicago Center
Fri 06:37:16 PM 40.5361 -88.8978 353° North 100 115 3,300 677 Climbing Chicago Center
Fri 06:38:18 PM 40.5653 -88.9033 352° North 103 119 3,900 629 Climbing Chicago Center
Fri 06:39:20 PM 40.5944 -88.9081 353° North 106 122 4,600 726 Climbing Chicago Center
Fri 06:40:22 PM 40.6289 -88.9128 354° North 104 120 5,400 677 Climbing Chicago Center
Fri 06:41:00 PM 40.6673 -88.9210 349° North  Level FlightAware Approximate
Fri 06:41:24 PM 40.6589 -88.9147 357° North 106 122 6,000  Level Chicago Center
Fri 06:42:27 PM 40.6889 -88.9158 358° North 107 123 6,600 581 Climbing Chicago Center
Fri 06:43:28 PM 40.7172 -88.9167 359° North 105 121 7,200 537 Climbing Chicago Center
Fri 06:44:30 PM 40.7478 -88.9189 357° North 106 122 7,700 384 Climbing Chicago Center
Fri 06:45:33 PM 40.7800 -88.9175 North 110 127 8,000 144 Climbing Chicago Center
Fri 06:46:35 PM 40.8244 -88.9169 North 120 138 8,000  Level Chicago Center
Fri 06:47:37 PM 40.8658 -88.9181 359° North 133 153 8,000 -48 Level Chicago Center
Fri 06:48:39 PM 40.9069 -88.9225 355° North 140 161 7,900 -48 Descending Chicago Center
Fri 06:49:41 PM 40.9481 -88.9278 354° North 145 167 7,900  Level Chicago Center
Fri 06:50:43 PM 40.9889 -88.9311 356° North 147 169 7,900  Level Chicago Center
Fri 06:51:45 PM 41.0347 -88.9331 358° North 144 166 7,900  Level Chicago Center
Fri 06:52:47 PM 41.0747 -88.9378 355° North 142 163 7,900  Level Chicago Center
Fri 06:53:49 PM 41.1158 -88.9397 358° North 145 167 7,900  Level Chicago Center
Fri 06:54:51 PM 41.1550 -88.9422 357° North 144 166 7,900  Level Chicago Center
Fri 06:55:54 PM 41.1947 -88.9447 357° North 143 165 7,900  Level Chicago Center
Fri 06:56:56 PM 41.2417 -88.9506 355° North 142 163 7,900  Level Chicago Center
Fri 06:57:58 PM 41.2833 -88.9542 356° North 145 167 7,900  Level Chicago Center
Fri 06:59:00 PM 41.3247 -88.9597 354° North 149 171 7,900  Level Chicago Center
Fri 07:00:02 PM 41.3664 -88.9622 357° North 150 173 7,900 48 Level Chicago Center
Fri 07:01:04 PM 41.4075 -88.9675 355° North 148 170 8,000  Climbing Chicago Center
Fri 07:02:06 PM 41.4489 -88.9706 357° North 149 171 7,900 -48 Descending Chicago Center
Fri 07:03:08 PM 41.4981 -88.9750 356° North 147 169 7,900 48 Level Chicago Center
Fri 07:04:10 PM 41.5400 -88.9789 356° North 150 173 8,000 48 Climbing Chicago Center
Fri 07:05:13 PM 41.5806 -88.9842 354° North 148 170 8,000  Level Chicago Center
Fri 07:06:15 PM 41.6233 -88.9858 358° North 151 174 8,000 48 Level Chicago Center
Fri 07:07:17 PM 41.6653 -88.9906 355° North 151 174 8,100  Climbing Chicago Center
Fri 07:08:19 PM 41.7142 -89.0011 351° North 149 171 8,000 -48 Descending Chicago Center
Fri 07:09:21 PM 41.7561 -89.0058 355° North 151 174 8,000  Level Chicago Center
Fri 07:10:23 PM 41.7981 -89.0097 356° North 151 174 8,000  Level Chicago Center
Fri 07:11:25 PM 41.8403 -89.0156 354° North 151 174 8,000  Level Chicago Center
Fri 07:12:27 PM 41.8839 -89.0197 356° North 155 178 8,000 -145 Level Chicago Center
Fri 07:13:29 PM 41.9347 -89.0017 15° North 160 184 7,700 -339 Descending Chicago Center
Fri 07:14:31 PM 41.9800 -88.9797 20° North 170 196 7,300 -339 Descending Chicago Center
Fri 07:15:33 PM 42.0225 -88.9650 14° North 161 185 7,000 -144 Descending Chicago Center
Fri 07:16:36 PM 42.0617 -88.9514 14° North 149 171 7,000  Level Chicago Center
Fri 07:17:38 PM 42.1014 -88.9314 20° North 149 171 7,000  Level Chicago Center
Fri 07:18:40 PM 42.1472 -88.9092 20° North 149 171 7,000  Level Chicago Center
Fri 07:19:42 PM 42.1878 -88.8908 19° North 152 175 7,000  Level Chicago Center
Fri 07:20:44 PM 42.2256 -88.8669 25° Northeast 150 173 7,000  Level Chicago Center
Fri 07:21:46 PM 42.2644 -88.8464 21° North 150 173 7,000  Level Chicago Center
Fri 07:22:48 PM 42.3014 -88.8289 19° North 145 167 7,000  Level Chicago Center
Fri 07:23:50 PM 42.3392 -88.8069 23° Northeast 145 167 7,000  Level Chicago Center
Fri 07:24:52 PM 42.3825 -88.7867 19° North 141 162 7,000 -48 Level Chicago Center
Fri 07:25:54 PM 42.4208 -88.7658 22° Northeast 144 166 6,900  Descending Chicago Center
Fri 07:26:56 PM 42.4592 -88.7492 18° North 144 166 7,000 48 Climbing Chicago Center
Fri 07:27:59 PM 42.4961 -88.7344 16° North 140 161 7,000  Level Chicago Center
Fri 07:29:01 PM 42.5253 -88.7014 40° Northeast 140 161 7,000  Level Chicago Center
Fri 07:30:03 PM 42.5414 -88.6431 69° East 141 162 7,000  Level Chicago Center
Fri 07:31:05 PM 42.5558 -88.5942 68° East 141 162 7,000  Level Chicago Center
Fri 07:32:07 PM 42.5700 -88.5439 69° East 141 162 7,000  Level Chicago Center
Fri 07:33:09 PM 42.5814 -88.4936 73° East 140 161 7,000 -48 Level Chicago Center
Fri 07:34:11 PM 42.5947 -88.4417 71° East 144 166 6,900 -48 Descending Chicago Center
Fri 07:35:13 PM 42.6086 -88.3817 73° East 143 165 6,900 48 Level Chicago Center
Fri 07:36:15 PM 42.6217 -88.3317 70° East 142 163 7,000 48 Climbing Chicago Center
Fri 07:37:17 PM 42.6311 -88.2825 75° East 137 158 7,000  Level Chicago Center
Fri 07:38:20 PM 42.6425 -88.2317 73° East 140 161 7,000 -48 Level Chicago Center
Fri 07:39:22 PM 42.6558 -88.1803 71° East 143 165 6,900 -48 Descending Chicago Center
Fri 07:40:24 PM 42.6692 -88.1197 73° East 142 163 6,900  Level Chicago Center
Fri 07:41:26 PM 42.6825 -88.0683 71° East 143 165 6,900 48 Level Chicago Center
Fri 07:42:28 PM 42.6961 -88.0150 71° East 149 171 7,000  Climbing Chicago Center
Fri 07:43:30 PM 42.7078 -87.9633 73° East 145 167 6,900 -48 Descending Chicago Center
Fri 07:44:32 PM 42.7206 -87.9097 72° East 148 170 6,900  Level Chicago Center
Fri 07:45:34 PM 42.7361 -87.8500 70° East 145 167 6,900  Level Chicago Center
Fri 07:46:36 PM 42.7494 -87.7986 71° East 144 166 6,900  Level Chicago Center
Fri 07:47:38 PM 42.7597 -87.7436 76° East 150 173 6,900  Level Chicago Center
Fri 07:48:40 PM 42.7733 -87.6928 70° East 145 167 6,900 48 Level Chicago Center
Fri 07:49:42 PM 42.7844 -87.6383 74° East 149 171 7,000  Climbing Chicago Center
Fri 07:50:45 PM 42.7958 -87.5742 76° East 151 174 6,900 -48 Descending Chicago Center
Fri 07:51:47 PM 42.8044 -87.5208 78° East 147 169 6,900  Level Chicago Center
Fri 07:52:49 PM 42.8175 -87.4661 72° East 151 174 6,900  Level Chicago Center
Fri 07:53:51 PM 42.8317 -87.4158 69° East 145 167 6,900  Level Chicago Center
Fri 07:54:53 PM 42.8458 -87.3636 70° East 149 171 6,900  Level Chicago Center
Fri 07:55:55 PM 42.8589 -87.3114 71° East 147 169 6,900  Level Chicago Center
Fri 07:56:57 PM 42.8789 -87.2475 67° East 151 174 6,900  Level Chicago Center
Fri 07:57:59 PM 42.8931 -87.1961 69° East 148 170 6,900  Level Chicago Center
Fri 07:59:01 PM 42.9064 -87.1419 71° East 150 173 6,900 48 Level Chicago Center
Fri 08:00:03 PM 42.9181 -87.0897 73° East 146 168 7,000 48 Climbing Chicago Center
Fri 08:01:06 PM 42.9336 -87.0358 68° East 150 173 7,000  Level Chicago Center
Fri 08:02:08 PM 42.9494 -86.9817 68° East 153 176 7,000 -48 Level Chicago Center
Fri 08:03:10 PM 42.9644 -86.9125 73° East 158 182 6,900 -194 Descending Chicago Center
Fri 08:04:12 PM 42.9822 -86.8581 66° East 158 182 6,600 -290 Descending Chicago Center
Fri 08:05:14 PM 42.9950 -86.8006 73° East 158 182 6,300 -290 Descending Chicago Center
Fri 08:06:16 PM 43.0067 -86.7444 74° East 155 178 6,000 -290 Descending Chicago Center
Fri 08:07:18 PM 43.0214 -86.6878 70° East 157 181 5,700 -242 Descending Chicago Center
Fri 08:08:20 PM 43.0378 -86.6336 67° East 155 178 5,500 -484 Descending Chicago Center
Fri 08:09:22 PM 43.0547 -86.5758 68° East 141 162 4,700 -677 Descending Chicago Center
Fri 08:10:24 PM 43.0669 -86.5361 67° East 122 140 4,100 -576 Descending Chicago Center
Fri 08:11:27 PM 43.0789 -86.4978 67° East 115 132 3,500 -528 Descending Chicago Center
Fri 08:12:29 PM 43.0906 -86.4597 67° East 111 128 3,000 -341 Descending Chicago Center
Fri 08:13:30 PM 43.1008 -86.4239 69° East 107 123 2,800 -48 Descending Chicago Center
Fri 08:14:33 PM 43.1125 -86.3853 68° East 107 123 2,900 -192 Climbing Chicago Center
Fri 08:15:35 PM 43.1256 -86.3417 68° East 106 122 2,400 -484 Descending Chicago Center
Fri 08:16:37 PM 43.1336 -86.3133 69° East 91 105 1,900 -484 Descending Chicago Center
Fri 08:17:39 PM 43.1433 -86.2856 64° Northeast 85 98 1,400 -484 Descending Chicago Center
Fri 08:18:41 PM 43.1542 -86.2667 52° Northeast 73 84 900 -339 Descending Chicago Center
Fri 08:19:43 PM 43.1664 -86.2403 58° Northeast 71 82 700 -194 Descending Chicago Center
Fri 08:21:00 PM 43.1667 -86.2333 68° East  Level FlightAware Approximate

Login

Don't have an account? Register now (free) for customized features, flight alerts, and more!